Time;durP1;ratioP1;P1;durP2;ratioP2;P2;SDS_P1;SDS_P2;PMS_P1;PMS_P2;Temp;Humidity;BMP_temperature;BMP_pressure;BME280_temperature;BME280_humidity;BME280_pressure;Samples;Min_cycle;Max_cycle;Signal;HPM_P1;HPM_P2
2022/02/14 00:00:25;;;;;;;4.90;3.90;;;10.50;87.60;;;;;;5034716;28;20214;-72
2022/02/14 00:02:51;;;;;;;6.60;5.83;;;10.60;87.80;;;;;;5036179;28;20215;-72
2022/02/14 00:05:17;;;;;;;7.67;4.63;;;10.60;87.80;;;;;;5032822;28;20213;-72
2022/02/14 00:07:42;;;;;;;5.57;4.60;;;10.60;87.80;;;;;;5043516;28;20425;-72
2022/02/14 00:10:08;;;;;;;5.93;4.57;;;10.50;88.50;;;;;;5052732;28;20269;-72
2022/02/14 00:12:39;;;;;;;5.10;4.70;;;10.50;88.60;;;;;;5037949;28;20188;-72
2022/02/14 00:15:05;;;;;;;5.40;4.90;;;10.50;88.50;;;;;;5033083;28;20888;-72
2022/02/14 00:17:31;;;;;;;5.20;4.70;;;10.60;88.30;;;;;;4998100;28;20504;-71
2022/02/14 00:19:57;;;;;;;4.37;3.90;;;10.50;88.60;;;;;;5033010;28;20927;-72
2022/02/14 00:22:22;;;;;;;5.47;4.57;;;10.50;89.00;;;;;;5043558;28;20213;-72
2022/02/14 00:24:50;;;;;;;6.23;4.23;;;10.50;89.20;;;;;;5052855;28;20187;-72
2022/02/14 00:27:15;;;;;;;6.23;5.00;;;10.50;89.20;;;;;;5034141;28;20182;-74
2022/02/14 00:29:42;;;;;;;5.20;4.70;;;10.60;89.00;;;;;;5052173;28;20519;-72
2022/02/14 00:32:08;;;;;;;7.70;4.20;;;10.60;89.30;;;;;;5042671;28;20988;-72
2022/02/14 00:34:33;;;;;;;5.70;5.00;;;10.60;89.30;;;;;;5031723;28;20174;-72
2022/02/14 00:36:59;;;;;;;5.70;5.20;;;10.60;89.30;;;;;;5014883;28;20517;-72
2022/02/14 00:39:25;;;;;;;5.33;4.83;;;10.50;88.70;;;;;;5031816;28;20190;-72
2022/02/14 00:41:51;;;;;;;4.20;3.90;;;10.40;88.90;;;;;;5032925;28;20181;-72
2022/02/14 00:44:16;;;;;;;5.07;4.00;;;10.40;89.80;;;;;;5032109;28;20250;-73
2022/02/14 00:46:42;;;;;;;5.77;4.50;;;10.50;89.80;;;;;;5031828;28;20716;-72
2022/02/14 00:49:08;;;;;;;5.53;4.60;;;10.40;90.00;;;;;;5032033;28;20189;-72
2022/02/14 00:51:33;;;;;;;5.37;4.23;;;10.50;89.60;;;;;;5018275;28;20224;-72
2022/02/14 00:53:59;;;;;;;4.80;4.40;;;10.40;89.90;;;;;;5052402;28;20311;-72
2022/02/14 00:56:25;;;;;;;4.57;4.17;;;10.40;90.00;;;;;;5033615;28;20184;-72
2022/02/14 00:58:51;;;;;;;4.73;4.33;;;10.40;90.00;;;;;;5052577;28;20177;-72
2022/02/14 01:01:16;;;;;;;4.40;4.00;;;10.40;90.00;;;;;;5050890;28;20418;-74
2022/02/14 01:03:42;;;;;;;4.60;4.20;;;10.50;90.00;;;;;;5052028;28;20191;-72
2022/02/14 01:06:08;;;;;;;6.40;4.73;;;10.50;90.00;;;;;;5034228;28;20216;-72
2022/02/14 01:08:33;;;;;;;4.10;3.77;;;10.60;89.80;;;;;;5050911;28;20172;-72
2022/02/14 01:10:59;;;;;;;4.63;4.33;;;10.50;89.70;;;;;;5052112;28;20173;-72
2022/02/14 01:13:25;;;;;;;4.97;4.50;;;10.50;89.90;;;;;;5031731;28;20521;-73
2022/02/14 01:15:51;;;;;;;5.63;4.40;;;10.50;90.10;;;;;;5014535;28;20419;-73
2022/02/14 01:18:17;;;;;;;5.27;3.90;;;10.40;90.00;;;;;;5031828;28;20188;-75
2022/02/14 01:20:42;;;;;;;4.10;3.70;;;10.40;90.40;;;;;;5031897;28;20195;-72
2022/02/14 01:23:08;;;;;;;3.87;3.57;;;10.30;90.40;;;;;;5034280;28;20227;-73
2022/02/14 01:25:34;;;;;;;4.53;4.10;;;10.30;90.70;;;;;;5050912;28;20484;-73
2022/02/14 01:28:00;;;;;;;5.50;4.30;;;10.40;90.50;;;;;;5034154;28;20185;-73
2022/02/14 01:30:25;;;;;;;5.33;4.30;;;10.40;90.70;;;;;;5051116;28;20163;-73
2022/02/14 01:32:51;;;;;;;8.23;4.03;;;10.30;90.40;;;;;;5052199;28;20175;-72
2022/02/14 01:35:17;;;;;;;5.10;3.83;;;10.40;90.50;;;;;;5050873;28;20722;-76
2022/02/14 01:37:43;;;;;;;4.90;4.00;;;10.40;90.50;;;;;;5051277;28;20184;-72
2022/02/14 01:40:10;;;;;;;4.10;3.70;;;10.50;90.30;;;;;;5051570;28;20180;-72
2022/02/14 01:42:36;;;;;;;4.53;4.13;;;10.50;90.30;;;;;;5035158;28;20265;-72
2022/02/14 01:45:04;;;;;;;4.33;3.93;;;10.40;90.30;;;;;;5055526;28;20942;-72
2022/02/14 01:47:30;;;;;;;4.63;4.20;;;10.50;90.80;;;;;;5048207;28;20426;-73
2022/02/14 01:49:56;;;;;;;5.47;4.27;;;10.40;90.60;;;;;;5035811;28;20416;-72
2022/02/14 01:52:22;;;;;;;4.60;4.07;;;10.40;90.50;;;;;;5017203;28;20622;-73
2022/02/14 01:54:50;;;;;;;4.10;3.70;;;10.50;90.60;;;;;;5035130;28;20424;-73
2022/02/14 01:57:18;;;;;;;9.00;5.10;;;10.60;90.30;;;;;;5035641;28;20415;-72
2022/02/14 01:59:45;;;;;;;4.13;3.70;;;10.70;90.30;;;;;;5035216;28;20501;-73
2022/02/14 02:02:11;;;;;;;5.10;4.40;;;10.60;90.10;;;;;;5017800;28;20928;-72
2022/02/14 02:04:40;;;;;;;4.83;4.17;;;10.50;90.30;;;;;;5034767;28;20635;-73
2022/02/14 02:07:07;;;;;;;5.30;4.13;;;10.60;90.30;;;;;;5035526;28;20433;-73
2022/02/14 02:09:33;;;;;;;4.53;4.10;;;10.40;90.50;;;;;;5016843;28;20428;-72
2022/02/14 02:14:43;;;;;;;5.93;4.80;;;10.40;90.90;;;;;;5035934;28;20415;-73
2022/02/14 02:17:09;;;;;;;5.13;4.73;;;10.30;90.80;;;;;;5035147;28;20477;-72
2022/02/14 02:19:35;;;;;;;8.30;4.00;;;10.40;90.80;;;;;;5034231;28;20544;-72
2022/02/14 02:22:01;;;;;;;5.00;4.50;;;10.30;90.90;;;;;;5035288;28;20524;-73
2022/02/14 02:24:27;;;;;;;4.77;4.37;;;10.40;90.90;;;;;;5034151;28;20414;-73
2022/02/14 02:27:02;;;;;;;6.07;4.33;;;10.40;90.70;;;;;;5050842;28;20965;-72
2022/02/14 02:29:28;;;;;;;4.00;3.60;;;10.50;90.60;;;;;;5054308;28;20169;-73
2022/02/14 02:31:54;;;;;;;4.33;4.03;;;10.50;90.40;;;;;;5037348;28;20826;-72
2022/02/14 02:34:20;;;;;;;5.83;5.33;;;10.50;90.60;;;;;;5054179;28;20457;-75
2022/02/14 02:36:56;;;;;;;4.30;3.90;;;10.50;90.60;;;;;;5054849;28;20465;-72
2022/02/14 02:39:23;;;;;;;4.43;3.97;;;10.30;90.80;;;;;;5051019;28;20204;-74
2022/02/14 02:41:49;;;;;;;4.40;3.43;;;10.20;91.00;;;;;;5017664;28;20403;-72
2022/02/14 02:44:15;;;;;;;4.00;3.70;;;10.20;91.20;;;;;;5000746;28;20421;-72
2022/02/14 02:46:41;;;;;;;4.10;3.70;;;10.20;91.20;;;;;;5015953;28;21134;-72
2022/02/14 02:49:10;;;;;;;5.13;3.87;;;10.20;91.20;;;;;;5034676;28;20764;-72
2022/02/14 02:51:38;;;;;;;6.17;3.93;;;10.20;91.40;;;;;;5033576;28;20768;-72
2022/02/14 02:54:04;;;;;;;8.00;4.57;;;10.30;91.20;;;;;;5041454;28;20427;-72
2022/02/14 02:56:29;;;;;;;4.20;3.57;;;10.30;91.00;;;;;;5053133;28;20502;-72
2022/02/14 02:58:55;;;;;;;6.10;4.30;;;10.30;91.10;;;;;;5054380;28;20780;-72
2022/02/14 03:01:21;;;;;;;4.73;3.80;;;10.30;91.00;;;;;;5054189;28;20418;-75
2022/02/14 03:03:48;;;;;;;4.30;4.00;;;10.30;91.40;;;;;;5035814;28;20186;-72
2022/02/14 03:06:14;;;;;;;6.67;3.60;;;10.20;91.30;;;;;;5054231;28;20205;-72
2022/02/14 03:08:39;;;;;;;4.10;3.70;;;10.30;91.30;;;;;;5052566;28;20422;-72
2022/02/14 03:11:05;;;;;;;6.90;3.87;;;10.30;91.20;;;;;;5036462;28;20423;-71
2022/02/14 03:13:31;;;;;;;4.60;3.83;;;10.30;91.20;;;;;;5053723;28;20632;-72
2022/02/14 03:15:57;;;;;;;4.50;3.63;;;10.20;91.40;;;;;;5035841;28;20184;-72
2022/02/14 03:18:22;;;;;;;4.00;3.60;;;10.20;91.40;;;;;;5053625;28;20702;-75
2022/02/14 03:20:48;;;;;;;3.97;3.57;;;10.10;91.60;;;;;;5035177;28;20184;-71
2022/02/14 03:23:14;;;;;;;4.33;3.50;;;10.20;91.80;;;;;;5041284;28;20182;-72
2022/02/14 03:25:39;;;;;;;4.50;4.10;;;10.20;91.60;;;;;;5032911;28;20209;-72
2022/02/14 03:28:05;;;;;;;3.63;3.30;;;10.10;91.50;;;;;;5033680;28;20231;-72
2022/02/14 03:30:31;;;;;;;4.90;3.60;;;10.10;91.70;;;;;;5033174;28;20190;-72
2022/02/14 03:32:56;;;;;;;3.83;3.50;;;10.10;91.70;;;;;;5015934;28;20178;-72
2022/02/14 03:35:22;;;;;;;5.70;3.80;;;10.20;91.70;;;;;;5033790;28;20551;-75
2022/02/14 03:37:49;;;;;;;5.67;4.30;;;10.10;91.80;;;;;;5048739;28;20180;-72
2022/02/14 03:40:15;;;;;;;5.60;3.90;;;10.10;91.90;;;;;;5053792;28;20166;-72
2022/02/14 03:42:41;;;;;;;4.27;3.87;;;10.10;91.90;;;;;;5052778;28;20421;-72
2022/02/14 03:45:07;;;;;;;5.07;4.67;;;10.00;92.00;;;;;;5035170;28;20209;-72
2022/02/14 03:47:32;;;;;;;4.07;3.73;;;10.00;92.10;;;;;;5032887;28;20262;-72
2022/02/14 03:49:58;;;;;;;5.57;4.10;;;9.90;92.80;;;;;;5033292;28;20416;-72
2022/02/14 03:52:24;;;;;;;6.20;3.90;;;9.90;92.90;;;;;;5052151;28;20185;-74
2022/02/14 03:54:49;;;;;;;4.10;3.70;;;10.00;92.30;;;;;;5052772;28;20195;-72
2022/02/14 03:57:15;;;;;;;3.73;3.40;;;10.00;92.60;;;;;;5053308;28;20638;-72
2022/02/14 03:59:41;;;;;;;5.70;4.10;;;10.10;92.10;;;;;;5052521;28;20623;-72
2022/02/14 04:02:07;;;;;;;4.43;4.00;;;10.00;92.10;;;;;;5052999;28;20178;-72
2022/02/14 04:04:33;;;;;;;4.50;3.70;;;10.00;92.20;;;;;;5049044;28;20428;-72
2022/02/14 04:06:58;;;;;;;4.00;3.70;;;10.00;92.30;;;;;;5014964;28;20217;-72
2022/02/14 04:09:24;;;;;;;4.10;3.63;;;10.10;92.30;;;;;;5033078;28;20183;-74
2022/02/14 04:11:50;;;;;;;3.03;2.93;;;10.20;92.30;;;;;;5014389;28;20690;-73
2022/02/14 04:14:15;;;;;;;3.97;3.60;;;10.20;92.10;;;;;;5033105;28;20181;-72
2022/02/14 04:16:41;;;;;;;5.60;3.73;;;10.20;92.00;;;;;;5032121;28;20195;-72
2022/02/14 04:19:07;;;;;;;5.40;4.70;;;10.30;92.10;;;;;;5037713;28;20247;-72
2022/02/14 04:21:34;;;;;;;4.40;3.80;;;10.10;92.00;;;;;;5051671;28;20760;-73
2022/02/14 04:24:00;;;;;;;7.40;3.70;;;10.10;92.30;;;;;;5034973;28;20187;-72
2022/02/14 04:26:26;;;;;;;3.70;3.40;;;10.20;92.10;;;;;;5034203;28;20547;-75
2022/02/14 04:28:51;;;;;;;3.83;3.43;;;10.20;92.30;;;;;;5034843;28;20501;-72
2022/02/14 04:31:17;;;;;;;4.90;3.50;;;10.30;92.20;;;;;;5035013;28;20428;-72
2022/02/14 04:33:43;;;;;;;6.20;3.80;;;10.30;92.00;;;;;;5051640;28;20190;-72
2022/02/14 04:36:11;;;;;;;4.47;4.07;;;10.40;92.00;;;;;;5040149;28;20226;-72
2022/02/14 04:38:36;;;;;;;3.97;3.60;;;10.40;91.90;;;;;;5032203;28;20171;-72
2022/02/14 04:41:02;;;;;;;4.27;3.90;;;10.40;91.80;;;;;;5032437;28;20785;-72
2022/02/14 04:43:28;;;;;;;9.17;4.23;;;10.40;92.00;;;;;;5046261;28;20189;-75
2022/02/14 04:45:54;;;;;;;4.77;3.60;;;10.40;91.90;;;;;;5051601;28;20812;-72
2022/02/14 04:48:19;;;;;;;5.77;5.37;;;10.40;92.00;;;;;;5034307;28;20184;-72
2022/02/14 04:50:46;;;;;;;4.60;3.03;;;10.30;92.00;;;;;;5033353;28;20196;-72
2022/02/14 04:53:11;;;;;;;5.17;4.77;;;10.20;92.30;;;;;;5050672;28;20234;-73
2022/02/14 04:55:37;;;;;;;4.07;3.37;;;10.20;92.70;;;;;;5051628;28;20869;-73
2022/02/14 04:58:03;;;;;;;5.50;3.87;;;10.20;92.40;;;;;;5052004;28;20184;-72
2022/02/14 05:00:30;;;;;;;4.13;3.83;;;10.20;92.50;;;;;;5052012;28;20176;-75
2022/02/14 05:02:56;;;;;;;5.77;5.47;;;10.30;92.50;;;;;;5051979;28;20177;-72
2022/02/14 05:05:22;;;;;;;5.30;4.90;;;10.30;92.40;;;;;;5050987;28;20472;-73
2022/02/14 05:07:50;;;;;;;5.13;4.70;;;10.40;92.40;;;;;;5034397;28;20352;-73
2022/02/14 05:10:17;;;;;;;5.93;5.30;;;10.50;92.20;;;;;;5040885;28;20179;-73
2022/02/14 05:12:43;;;;;;;3.70;3.40;;;10.20;92.40;;;;;;5038897;28;20990;-73
2022/02/14 05:15:09;;;;;;;4.93;4.53;;;10.20;93.20;;;;;;5039038;28;20499;-72
2022/02/14 05:17:35;;;;;;;4.40;3.57;;;10.20;92.80;;;;;;5048841;28;20188;-73
2022/02/14 05:20:04;;;;;;;3.90;3.60;;;10.20;93.00;;;;;;5014945;28;20930;-72
2022/02/14 05:22:30;;;;;;;8.87;3.70;;;10.20;93.10;;;;;;5051914;28;20874;-73
2022/02/14 05:24:55;;;;;;;5.93;5.50;;;10.30;93.20;;;;;;5050937;28;20513;-73
2022/02/14 05:27:22;;;;;;;5.90;3.73;;;10.30;93.00;;;;;;5055243;28;20425;-72
2022/02/14 05:29:48;;;;;;;7.10;6.57;;;10.20;93.30;;;;;;5049602;28;20508;-73
2022/02/14 05:32:14;;;;;;;3.93;2.93;;;10.20;93.60;;;;;;5051367;28;20984;-73
2022/02/14 05:34:39;;;;;;;4.63;3.50;;;10.20;93.80;;;;;;5050688;28;20425;-73
2022/02/14 05:37:05;;;;;;;4.87;4.57;;;10.40;93.70;;;;;;5051240;28;20415;-72
2022/02/14 05:39:31;;;;;;;4.00;3.70;;;10.40;93.70;;;;;;5052591;28;20183;-73
2022/02/14 05:41:57;;;;;;;5.77;5.47;;;10.40;93.60;;;;;;5049933;28;20507;-72
2022/02/14 05:44:23;;;;;;;3.83;3.63;;;10.30;93.60;;;;;;5057482;28;20192;-72
2022/02/14 05:46:48;;;;;;;5.47;3.47;;;10.40;94.00;;;;;;5070901;28;20287;-72
2022/02/14 05:49:14;;;;;;;5.07;4.47;;;10.50;93.80;;;;;;5070414;28;20230;-72
2022/02/14 05:51:40;;;;;;;4.27;3.83;;;10.50;93.70;;;;;;5058248;28;20239;-72
2022/02/14 05:54:06;;;;;;;3.40;3.10;;;10.50;93.80;;;;;;5060378;28;20415;-72
2022/02/14 05:56:32;;;;;;;3.20;3.00;;;10.60;93.80;;;;;;5071796;28;20201;-72
2022/02/14 05:58:59;;;;;;;3.57;3.27;;;10.50;93.80;;;;;;5061113;28;20415;-72
2022/02/14 06:01:26;;;;;;;4.43;3.93;;;10.50;94.00;;;;;;5052157;28;20196;-72
2022/02/14 06:03:51;;;;;;;4.20;3.90;;;10.60;93.90;;;;;;5051288;28;20744;-72
2022/02/14 06:06:17;;;;;;;4.43;4.13;;;10.50;93.90;;;;;;5064179;28;20474;-72
2022/02/14 06:08:43;;;;;;;4.10;3.70;;;10.60;94.00;;;;;;5050928;28;20184;-73
2022/02/14 06:11:08;;;;;;;5.13;4.83;;;10.60;93.70;;;;;;5060668;28;20689;-72
2022/02/14 06:13:34;;;;;;;3.80;3.60;;;10.60;93.50;;;;;;5069077;28;20687;-72
2022/02/14 06:16:00;;;;;;;4.43;3.87;;;10.50;93.60;;;;;;5054063;28;20185;-72
2022/02/14 06:18:25;;;;;;;4.67;4.37;;;10.60;93.70;;;;;;5066643;28;20602;-73
2022/02/14 06:20:51;;;;;;;4.50;4.20;;;10.60;93.60;;;;;;5061143;28;20190;-72
2022/02/14 06:23:17;;;;;;;4.57;4.20;;;10.60;93.60;;;;;;5031152;28;20194;-72
2022/02/14 06:25:43;;;;;;;6.07;5.47;;;10.50;93.80;;;;;;5030569;28;20208;-72
2022/02/14 06:28:09;;;;;;;3.80;3.50;;;10.50;94.00;;;;;;5046562;28;20844;-72
2022/02/14 06:30:36;;;;;;;6.20;5.50;;;10.60;94.00;;;;;;5052543;28;20180;-74
2022/02/14 06:33:02;;;;;;;6.03;5.53;;;10.70;94.10;;;;;;5037002;28;20908;-72
2022/02/14 06:35:28;;;;;;;3.30;3.03;;;10.70;93.90;;;;;;5052475;28;20482;-71
2022/02/14 06:37:54;;;;;;;3.40;3.10;;;10.70;94.00;;;;;;5053531;28;21010;-72
2022/02/14 06:40:20;;;;;;;4.60;4.20;;;10.70;94.10;;;;;;5036930;28;20227;-72
2022/02/14 06:42:47;;;;;;;5.53;4.27;;;10.80;94.30;;;;;;5052096;28;20415;-72
2022/02/14 06:45:15;;;;;;;5.07;4.57;;;10.70;94.30;;;;;;5018935;28;20665;-72
2022/02/14 06:47:41;;;;;;;3.97;3.13;;;10.80;94.30;;;;;;5033649;28;20437;-72
2022/02/14 06:50:08;;;;;;;4.90;3.63;;;10.70;94.50;;;;;;5016743;28;20497;-72
2022/02/14 06:52:33;;;;;;;6.20;5.53;;;10.70;94.50;;;;;;5016243;28;20745;-73
2022/02/14 06:54:59;;;;;;;4.97;4.53;;;10.80;94.50;;;;;;5036388;28;20436;-73
2022/02/14 06:57:25;;;;;;;5.97;5.20;;;10.80;94.50;;;;;;5047134;28;20181;-72
2022/02/14 06:59:50;;;;;;;6.07;4.00;;;10.90;95.00;;;;;;5033530;28;20196;-72
2022/02/14 07:02:16;;;;;;;5.50;4.97;;;10.90;94.70;;;;;;5037659;28;20444;-72
2022/02/14 07:04:42;;;;;;;3.73;3.50;;;10.80;94.70;;;;;;5048772;28;20188;-71
2022/02/14 07:07:08;;;;;;;3.40;3.17;;;10.90;94.90;;;;;;5029684;28;20266;-70
2022/02/14 07:09:34;;;;;;;4.33;3.87;;;10.90;94.90;;;;;;5025045;28;20267;-76
2022/02/14 07:11:59;;;;;;;5.30;5.00;;;10.90;95.10;;;;;;5045656;28;20459;-70
2022/02/14 07:14:25;;;;;;;3.60;3.30;;;10.80;95.50;;;;;;5042912;28;20174;-70
2022/02/14 07:16:51;;;;;;;3.20;3.00;;;10.70;95.40;;;;;;5018840;28;20182;-70
2022/02/14 07:19:17;;;;;;;3.30;3.00;;;10.70;95.50;;;;;;5054036;28;20447;-70
2022/02/14 07:21:43;;;;;;;3.07;2.87;;;10.70;95.60;;;;;;5043227;28;20713;-70
2022/02/14 07:24:08;;;;;;;3.40;2.90;;;10.70;95.80;;;;;;5052478;28;20655;-71
2022/02/14 07:26:34;;;;;;;5.20;4.80;;;10.70;96.00;;;;;;5063128;28;20687;-70
2022/02/14 07:29:00;;;;;;;3.97;3.70;;;10.60;96.30;;;;;;5060800;28;20686;-70
2022/02/14 07:31:26;;;;;;;4.33;4.03;;;10.50;96.60;;;;;;5053003;28;20415;-70
2022/02/14 07:33:52;;;;;;;4.00;3.70;;;10.60;96.60;;;;;;5073297;28;20826;-71
2022/02/14 07:36:19;;;;;;;4.60;4.20;;;10.60;96.90;;;;;;5074317;28;20891;-71
2022/02/14 07:38:44;;;;;;;4.23;4.03;;;10.50;97.20;;;;;;5065917;28;20419;-71
2022/02/14 07:41:10;;;;;;;3.90;3.60;;;10.60;97.20;;;;;;5065262;28;20433;-71
2022/02/14 07:43:36;;;;;;;3.50;3.30;;;10.70;97.00;;;;;;5058178;28;20186;-73
2022/02/14 07:46:02;;;;;;;3.40;3.10;;;10.80;97.30;;;;;;5058793;28;20281;-72
2022/02/14 07:48:27;;;;;;;5.10;4.67;;;10.80;97.00;;;;;;5059855;28;20432;-71
2022/02/14 07:50:53;;;;;;;3.83;3.30;;;10.90;97.00;;;;;;5055902;28;20548;-71
2022/02/14 07:53:19;;;;;;;3.37;3.17;;;10.80;96.90;;;;;;5069982;28;20185;-70
2022/02/14 07:55:45;;;;;;;3.17;2.97;;;10.90;97.00;;;;;;5058335;28;20649;-71
2022/02/14 07:58:11;;;;;;;3.50;3.13;;;11.00;97.10;;;;;;5063936;28;20423;-70
2022/02/14 08:00:37;;;;;;;4.40;4.10;;;10.90;96.90;;;;;;5073012;28;20417;-76
2022/02/14 08:03:03;;;;;;;3.30;3.10;;;10.90;97.30;;;;;;5066857;28;20191;-70
2022/02/14 08:05:29;;;;;;;3.80;3.50;;;10.80;97.60;;;;;;5053458;28;20470;-70
2022/02/14 08:07:55;;;;;;;4.00;3.70;;;10.90;98.00;;;;;;5052387;28;20517;-70
2022/02/14 08:10:20;;;;;;;3.87;3.40;;;11.00;97.70;;;;;;5052235;28;20427;-71
2022/02/14 08:12:46;;;;;;;4.03;3.50;;;11.10;97.70;;;;;;5052735;28;20192;-70
2022/02/14 08:15:12;;;;;;;4.10;3.33;;;11.00;97.90;;;;;;5051935;28;20505;-71
2022/02/14 08:17:38;;;;;;;6.10;4.87;;;11.00;98.20;;;;;;5056333;28;20213;-76
2022/02/14 08:20:05;;;;;;;3.67;3.27;;;11.00;98.30;;;;;;5071426;28;20657;-70
2022/02/14 08:22:30;;;;;;;2.97;2.77;;;11.00;98.10;;;;;;5055637;28;20228;-73
2022/02/14 08:24:57;;;;;;;4.00;3.60;;;11.10;98.30;;;;;;5037959;28;20850;-76
2022/02/14 08:27:24;;;;;;;5.80;3.57;;;11.10;99.30;;;;;;5015439;28;20437;-76
2022/02/14 08:29:53;;;;;;;3.33;3.10;;;11.30;99.60;;;;;;5032139;28;20945;-76
2022/02/14 08:32:18;;;;;;;3.07;2.87;;;11.50;99.80;;;;;;5050535;28;20506;-76
2022/02/14 08:34:44;;;;;;;3.10;2.90;;;11.60;98.80;;;;;;5033355;28;20827;-77
2022/02/14 08:37:11;;;;;;;2.93;2.73;;;11.60;98.70;;;;;;5033130;28;20213;-76
2022/02/14 08:39:38;;;;;;;3.70;3.40;;;11.60;98.50;;;;;;5015467;28;20188;-77
2022/02/14 08:42:05;;;;;;;3.03;2.83;;;11.80;99.90;;;;;;5032223;28;20924;-78
2022/02/14 08:44:30;;;;;;;3.47;3.27;;;12.10;98.90;;;;;;5032794;28;20425;-77
2022/02/14 08:46:58;;;;;;;4.07;3.77;;;12.20;97.90;;;;;;5046089;28;20476;-76
2022/02/14 08:49:24;;;;;;;3.50;3.20;;;12.00;97.40;;;;;;5037737;28;20190;-76
2022/02/14 08:51:54;;;;;;;4.03;3.70;;;12.10;97.80;;;;;;5031802;28;20420;-76
2022/02/14 08:54:20;;;;;;;3.60;3.40;;;11.90;97.90;;;;;;5033027;28;20523;-75
2022/02/14 08:56:45;;;;;;;4.43;3.97;;;12.10;98.20;;;;;;5032132;28;20578;-71
2022/02/14 08:59:14;;;;;;;4.00;3.70;;;12.00;99.00;;;;;;5032898;28;20417;-71
2022/02/14 09:01:40;;;;;;;3.67;3.43;;;12.00;97.80;;;;;;5032422;28;20897;-71
2022/02/14 09:04:06;;;;;;;3.30;3.10;;;11.90;97.90;;;;;;5016040;28;20432;-71
2022/02/14 09:06:31;;;;;;;6.00;5.40;;;11.80;98.10;;;;;;5032810;28;20466;-71
2022/02/14 09:08:57;;;;;;;5.10;4.10;;;11.80;98.80;;;;;;5014161;28;20174;-71
2022/02/14 09:11:23;;;;;;;5.77;5.37;;;11.90;98.70;;;;;;5051157;28;20417;-71
2022/02/14 09:13:49;;;;;;;3.97;3.67;;;11.90;98.50;;;;;;5046420;28;20193;-71
2022/02/14 09:16:15;;;;;;;4.47;4.17;;;12.00;98.40;;;;;;5040924;28;20208;-71
2022/02/14 09:18:41;;;;;;;5.67;4.37;;;11.90;98.40;;;;;;5033772;28;20173;-71
2022/02/14 09:21:07;;;;;;;3.70;3.50;;;12.00;98.70;;;;;;5044805;28;20468;-71
2022/02/14 09:23:33;;;;;;;4.23;3.93;;;12.00;98.60;;;;;;5042697;28;20908;-71
2022/02/14 09:25:59;;;;;;;3.30;3.10;;;11.90;98.80;;;;;;5039683;28;20473;-71
2022/02/14 09:28:25;;;;;;;3.53;3.30;;;11.80;99.10;;;;;;5024105;28;20430;-72
2022/02/14 09:30:52;;;;;;;7.07;3.60;;;11.90;99.30;;;;;;5022482;28;20418;-72
2022/02/14 09:33:18;;;;;;;5.40;5.00;;;12.00;99.10;;;;;;5019884;28;20439;-72
2022/02/14 09:35:45;;;;;;;5.83;5.33;;;12.10;98.90;;;;;;5029893;28;20508;-72
2022/02/14 09:38:10;;;;;;;3.40;3.10;;;12.10;98.80;;;;;;5032145;28;20201;-72
2022/02/14 09:40:36;;;;;;;6.30;5.73;;;12.20;98.50;;;;;;5032741;28;20453;-71
2022/02/14 09:43:03;;;;;;;3.70;3.40;;;12.30;98.70;;;;;;5042809;28;20337;-71
2022/02/14 09:45:30;;;;;;;6.10;5.70;;;12.30;98.50;;;;;;5033915;28;20476;-71
2022/02/14 09:48:07;;;;;;;4.33;4.03;;;12.30;98.40;;;;;;5033548;28;20430;-71
2022/02/14 09:50:35;;;;;;;6.67;6.30;;;12.30;98.40;;;;;;5042065;28;20427;-71
2022/02/14 09:53:04;;;;;;;5.63;5.23;;;12.40;98.40;;;;;;5036554;28;20435;-71
2022/02/14 09:55:31;;;;;;;4.30;4.00;;;12.30;98.30;;;;;;5032185;28;20749;-71
2022/02/14 09:57:57;;;;;;;4.77;4.47;;;12.30;98.30;;;;;;5043099;28;20458;-71
2022/02/14 10:00:23;;;;;;;4.40;4.13;;;12.30;98.60;;;;;;5033110;28;20424;-72
2022/02/14 10:03:18;;;;;;;4.33;4.13;;;12.30;98.60;;;;;;5045057;28;20437;-72
2022/02/14 10:05:55;;;;;;;3.40;3.10;;;12.30;98.70;;;;;;5044806;28;20214;-73
2022/02/14 10:08:26;;;;;;;3.90;3.60;;;12.30;98.60;;;;;;5036124;28;20412;-71
2022/02/14 10:10:54;;;;;;;5.40;4.90;;;12.30;99.10;;;;;;5037190;28;20414;-71
2022/02/14 10:13:32;;;;;;;7.60;4.10;;;12.30;98.90;;;;;;5037840;28;20434;-72
2022/02/14 10:15:59;;;;;;;13.10;5.13;;;12.30;99.00;;;;;;5055196;28;20422;-72
2022/02/14 10:18:34;;;;;;;2.93;2.50;;;12.30;98.80;;;;;;5055051;28;20426;-72
2022/02/14 10:21:16;;;;;;;3.60;3.30;;;12.20;98.80;;;;;;5039342;28;20433;-72
2022/02/14 10:24:02;;;;;;;4.47;4.17;;;12.30;99.00;;;;;;5043320;28;20427;-72
2022/02/14 10:26:35;;;;;;;3.60;3.30;;;12.30;99.10;;;;;;5019884;28;20861;-72
2022/02/14 10:29:11;;;;;;;4.70;4.40;;;12.30;99.00;;;;;;5038451;28;20434;-72
2022/02/14 10:31:49;;;;;;;3.00;2.80;;;12.40;98.80;;;;;;5035891;28;20421;-73
2022/02/14 10:34:16;;;;;;;5.10;4.03;;;12.40;98.70;;;;;;5043406;28;20816;-72
2022/02/14 10:36:44;;;;;;;3.80;3.43;;;12.50;98.60;;;;;;5038940;28;20433;-72
2022/02/14 10:39:22;;;;;;;3.27;3.07;;;12.50;98.50;;;;;;5034314;28;20870;-72
2022/02/14 10:42:02;;;;;;;3.50;3.00;;;12.50;98.50;;;;;;5034702;28;20410;-73
2022/02/14 10:47:24;;;;;;;3.17;2.90;;;12.60;99.40;;;;;;5054648;28;20503;-72
2022/02/14 10:50:12;;;;;;;3.30;3.10;;;12.60;99.80;;;;;;5054198;28;20420;-72
2022/02/14 10:52:56;;;;;;;3.17;3.07;;;12.60;99.90;;;;;;5053148;28;20393;-72
2022/02/14 10:55:28;;;;;;;4.50;3.93;;;12.60;99.90;;;;;;5048305;28;20479;-72
2022/02/14 10:57:56;;;;;;;3.40;3.20;;;12.60;99.90;;;;;;5034462;28;20440;-71
2022/02/14 11:00:27;;;;;;;3.60;3.50;;;12.60;99.90;;;;;;5043814;28;20423;-71
2022/02/14 11:02:58;;;;;;;4.57;4.27;;;12.50;99.90;;;;;;5053826;28;20881;-72
2022/02/14 11:05:28;;;;;;;3.70;3.50;;;12.50;99.90;;;;;;5054841;28;20443;-71
2022/02/14 11:07:55;;;;;;;5.27;4.97;;;12.40;99.90;;;;;;5036416;28;20477;-71
2022/02/14 11:10:21;;;;;;;2.10;2.00;;;12.40;99.90;;;;;;5054685;28;20443;-71
2022/02/14 11:12:55;;;;;;;4.27;4.07;;;12.30;99.90;;;;;;5054584;28;20475;-71
2022/02/14 11:15:27;;;;;;;4.03;3.83;;;12.30;99.90;;;;;;5054450;28;20424;-71
2022/02/14 11:18:06;;;;;;;3.57;3.47;;;12.20;99.90;;;;;;5053833;28;20423;-71
2022/02/14 11:20:32;;;;;;;4.80;4.60;;;12.10;99.90;;;;;;5054244;28;20944;-71
2022/02/14 11:23:00;;;;;;;2.30;2.20;;;12.10;99.90;;;;;;5053845;28;20563;-71
2022/02/14 11:25:48;;;;;;;2.03;1.93;;;12.10;99.90;;;;;;5054274;28;20462;-71
2022/02/14 11:28:23;;;;;;;3.80;3.60;;;12.10;99.90;;;;;;5054043;28;20911;-71
2022/02/14 11:31:02;;;;;;;3.80;3.63;;;12.10;99.90;;;;;;5054168;28;20454;-75
2022/02/14 11:33:28;;;;;;;5.40;5.10;;;12.10;99.90;;;;;;5054359;28;20478;-72
2022/02/14 11:35:58;;;;;;;3.40;3.20;;;12.20;99.90;;;;;;5053368;28;20959;-72
2022/02/14 11:38:47;;;;;;;4.10;3.80;;;12.30;99.90;;;;;;5054083;28;20412;-71
2022/02/14 11:41:22;;;;;;;3.97;3.77;;;12.30;99.90;;;;;;5053345;28;20466;-71
2022/02/14 11:43:48;;;;;;;4.10;3.87;;;12.40;99.90;;;;;;5053993;28;20405;-71
2022/02/14 11:46:26;;;;;;;4.13;4.00;;;12.60;99.90;;;;;;5053396;28;20541;-71
2022/02/14 11:49:04;;;;;;;3.43;3.33;;;12.60;99.90;;;;;;5052821;28;20506;-72
2022/02/14 11:51:43;;;;;;;2.67;2.57;;;12.70;99.90;;;;;;5053556;28;20427;-71
2022/02/14 11:54:40;;;;;;;2.97;2.77;;;12.70;99.90;;;;;;5052984;28;20435;-72
2022/02/14 11:57:14;;;;;;;2.67;2.57;;;12.80;99.80;;;;;;5053437;28;20406;-71
2022/02/14 11:59:40;;;;;;;4.40;4.20;;;12.90;98.50;;;;;;5053447;28;20444;-72
2022/02/14 12:02:06;;;;;;;3.10;3.00;;;13.00;98.80;;;;;;5052516;28;20415;-71
2022/02/14 12:04:32;;;;;;;2.70;2.50;;;13.10;97.30;;;;;;5035398;28;20420;-71
2022/02/14 12:07:25;;;;;;;2.50;2.40;;;13.00;96.90;;;;;;5052418;28;21030;-71
2022/02/14 12:09:57;;;;;;;2.70;2.60;;;13.00;96.40;;;;;;5042903;28;20640;-74
2022/02/14 12:13:03;;;;;;;3.47;3.20;;;12.90;95.60;;;;;;5035136;28;20415;-71
2022/02/14 12:21:20;;;;;;;3.33;3.23;;;12.70;96.40;;;;;;5052370;28;21482;-71
2022/02/14 12:23:48;;;;;;;5.03;3.50;;;12.70;96.70;;;;;;5053299;28;20446;-71
2022/02/14 12:26:17;;;;;;;4.93;4.17;;;12.80;97.20;;;;;;5051861;28;20457;-71
2022/02/14 12:28:46;;;;;;;3.67;2.30;;;12.70;97.00;;;;;;5052868;28;20768;-71
2022/02/14 12:31:13;;;;;;;3.97;3.50;;;12.80;96.70;;;;;;5052256;28;21080;-71
2022/02/14 12:33:39;;;;;;;3.90;3.70;;;12.80;96.80;;;;;;5052831;28;20908;-71
2022/02/14 12:36:08;;;;;;;3.60;3.50;;;13.00;96.90;;;;;;5052400;28;20451;-71
2022/02/14 12:38:37;;;;;;;3.03;2.83;;;12.90;96.50;;;;;;5052899;28;20412;-71
2022/02/14 12:41:13;;;;;;;4.30;4.10;;;12.90;96.30;;;;;;5052211;28;20416;-72
2022/02/14 12:43:43;;;;;;;3.10;2.90;;;12.90;96.70;;;;;;5052833;28;20417;-71
2022/02/14 12:46:19;;;;;;;3.50;3.20;;;12.80;96.40;;;;;;5052161;28;20457;-72
2022/02/14 12:48:53;;;;;;;3.20;3.00;;;12.80;96.30;;;;;;5053194;28;20429;-71
2022/02/14 12:51:24;;;;;;;2.60;2.50;;;12.80;96.50;;;;;;5053280;28;20404;-71
2022/02/14 12:53:52;;;;;;;3.80;3.60;;;13.00;96.60;;;;;;5052837;28;20415;-71
2022/02/14 12:56:35;;;;;;;3.73;3.50;;;13.10;96.40;;;;;;5052184;28;20898;-71
2022/02/14 12:59:06;;;;;;;3.50;3.30;;;13.10;96.10;;;;;;5052123;28;20544;-72
2022/02/14 13:01:40;;;;;;;3.30;3.10;;;13.10;95.70;;;;;;5052865;28;20395;-71